sensor_id;sensor_type;location;lat;lon;timestamp;P1;durP1;ratioP1;P2;durP2;ratioP2
52574;SDS011;38468;48.114;-1.684;2023-09-18T00:01:51;7.03;;;4.53;;
52574;SDS011;38468;48.114;-1.684;2023-09-18T00:03:52;7.80;;;4.80;;
52574;SDS011;38468;48.114;-1.684;2023-09-18T00:05:53;10.73;;;6.25;;
52574;SDS011;38468;48.114;-1.684;2023-09-18T00:07:53;9.63;;;5.05;;
52574;SDS011;38468;48.114;-1.684;2023-09-18T00:09:54;11.35;;;4.90;;
52574;SDS011;38468;48.114;-1.684;2023-09-18T00:11:54;7.75;;;4.22;;
52574;SDS011;38468;48.114;-1.684;2023-09-18T00:13:55;8.35;;;4.93;;
52574;SDS011;38468;48.114;-1.684;2023-09-18T00:15:56;7.75;;;4.82;;
52574;SDS011;38468;48.114;-1.684;2023-09-18T00:17:59;6.47;;;4.97;;
52574;SDS011;38468;48.114;-1.684;2023-09-18T00:20:01;10.60;;;4.75;;
52574;SDS011;38468;48.114;-1.684;2023-09-18T00:22:05;7.25;;;5.20;;
52574;SDS011;38468;48.114;-1.684;2023-09-18T00:24:06;6.87;;;4.97;;
52574;SDS011;38468;48.114;-1.684;2023-09-18T00:26:08;9.30;;;4.65;;
52574;SDS011;38468;48.114;-1.684;2023-09-18T00:28:08;5.68;;;5.00;;
52574;SDS011;38468;48.114;-1.684;2023-09-18T00:30:09;8.65;;;5.20;;
52574;SDS011;38468;48.114;-1.684;2023-09-18T00:32:11;11.80;;;4.88;;
52574;SDS011;38468;48.114;-1.684;2023-09-18T00:34:12;8.27;;;4.75;;
52574;SDS011;38468;48.114;-1.684;2023-09-18T00:36:12;6.35;;;4.18;;
52574;SDS011;38468;48.114;-1.684;2023-09-18T00:38:13;6.75;;;4.97;;
52574;SDS011;38468;48.114;-1.684;2023-09-18T00:40:14;8.77;;;4.20;;
52574;SDS011;38468;48.114;-1.684;2023-09-18T00:42:16;7.10;;;4.55;;
52574;SDS011;38468;48.114;-1.684;2023-09-18T00:44:18;7.30;;;4.95;;
52574;SDS011;38468;48.114;-1.684;2023-09-18T00:46:18;7.80;;;4.90;;
52574;SDS011;38468;48.114;-1.684;2023-09-18T00:48:19;8.25;;;4.28;;
52574;SDS011;38468;48.114;-1.684;2023-09-18T00:50:21;10.07;;;4.82;;
52574;SDS011;38468;48.114;-1.684;2023-09-18T00:52:22;5.93;;;4.15;;
52574;SDS011;38468;48.114;-1.684;2023-09-18T00:54:24;13.13;;;5.82;;
52574;SDS011;38468;48.114;-1.684;2023-09-18T00:56:24;11.63;;;5.43;;
52574;SDS011;38468;48.114;-1.684;2023-09-18T00:58:25;9.55;;;4.93;;
52574;SDS011;38468;48.114;-1.684;2023-09-18T01:00:26;6.80;;;5.90;;
52574;SDS011;38468;48.114;-1.684;2023-09-18T01:02:27;6.22;;;5.55;;
52574;SDS011;38468;48.114;-1.684;2023-09-18T01:04:28;9.32;;;5.30;;
52574;SDS011;38468;48.114;-1.684;2023-09-18T01:06:29;8.15;;;5.43;;
52574;SDS011;38468;48.114;-1.684;2023-09-18T01:08:30;13.90;;;7.82;;
52574;SDS011;38468;48.114;-1.684;2023-09-18T01:10:32;5.30;;;4.78;;
52574;SDS011;38468;48.114;-1.684;2023-09-18T01:12:49;11.00;;;7.45;;
52574;SDS011;38468;48.114;-1.684;2023-09-18T01:15:12;13.05;;;6.78;;
52574;SDS011;38468;48.114;-1.684;2023-09-18T01:17:19;12.55;;;5.93;;
52574;SDS011;38468;48.114;-1.684;2023-09-18T01:19:42;10.88;;;5.80;;
52574;SDS011;38468;48.114;-1.684;2023-09-18T01:21:44;13.45;;;7.10;;
52574;SDS011;38468;48.114;-1.684;2023-09-18T01:23:45;11.70;;;6.22;;
52574;SDS011;38468;48.114;-1.684;2023-09-18T01:25:46;13.32;;;6.75;;
52574;SDS011;38468;48.114;-1.684;2023-09-18T01:27:47;17.52;;;6.97;;
52574;SDS011;38468;48.114;-1.684;2023-09-18T01:29:47;10.02;;;6.22;;
52574;SDS011;38468;48.114;-1.684;2023-09-18T01:31:49;9.77;;;6.15;;
52574;SDS011;38468;48.114;-1.684;2023-09-18T01:33:51;10.07;;;5.55;;
52574;SDS011;38468;48.114;-1.684;2023-09-18T01:37:56;11.02;;;6.78;;
52574;SDS011;38468;48.114;-1.684;2023-09-18T01:39:59;12.95;;;7.47;;
52574;SDS011;38468;48.114;-1.684;2023-09-18T01:42:03;12.05;;;8.10;;
52574;SDS011;38468;48.114;-1.684;2023-09-18T01:44:05;14.07;;;6.78;;
52574;SDS011;38468;48.114;-1.684;2023-09-18T01:46:06;13.80;;;8.20;;
52574;SDS011;38468;48.114;-1.684;2023-09-18T01:48:07;12.32;;;7.90;;
52574;SDS011;38468;48.114;-1.684;2023-09-18T01:50:07;10.10;;;7.20;;
52574;SDS011;38468;48.114;-1.684;2023-09-18T01:52:09;16.27;;;8.63;;
52574;SDS011;38468;48.114;-1.684;2023-09-18T01:54:10;10.88;;;6.88;;
52574;SDS011;38468;48.114;-1.684;2023-09-18T01:56:11;14.68;;;8.63;;
52574;SDS011;38468;48.114;-1.684;2023-09-18T01:58:11;10.57;;;8.00;;
52574;SDS011;38468;48.114;-1.684;2023-09-18T02:00:14;11.02;;;7.93;;
52574;SDS011;38468;48.114;-1.684;2023-09-18T02:02:15;9.70;;;7.43;;
52574;SDS011;38468;48.114;-1.684;2023-09-18T02:04:16;14.18;;;8.55;;
52574;SDS011;38468;48.114;-1.684;2023-09-18T02:06:17;13.30;;;8.50;;
52574;SDS011;38468;48.114;-1.684;2023-09-18T02:08:17;18.40;;;7.53;;
52574;SDS011;38468;48.114;-1.684;2023-09-18T02:10:18;9.90;;;7.88;;
52574;SDS011;38468;48.114;-1.684;2023-09-18T02:12:19;13.43;;;8.00;;
52574;SDS011;38468;48.114;-1.684;2023-09-18T02:14:20;12.00;;;7.80;;
52574;SDS011;38468;48.114;-1.684;2023-09-18T02:16:20;8.90;;;7.30;;
52574;SDS011;38468;48.114;-1.684;2023-09-18T02:18:24;9.35;;;6.50;;
52574;SDS011;38468;48.114;-1.684;2023-09-18T02:20:24;11.00;;;7.28;;
52574;SDS011;38468;48.114;-1.684;2023-09-18T02:22:25;8.07;;;6.00;;
52574;SDS011;38468;48.114;-1.684;2023-09-18T02:24:25;11.00;;;7.68;;
52574;SDS011;38468;48.114;-1.684;2023-09-18T02:26:26;9.90;;;7.38;;
52574;SDS011;38468;48.114;-1.684;2023-09-18T02:28:26;11.15;;;6.10;;
52574;SDS011;38468;48.114;-1.684;2023-09-18T02:30:27;14.50;;;6.80;;
52574;SDS011;38468;48.114;-1.684;2023-09-18T02:32:28;9.23;;;6.88;;
52574;SDS011;38468;48.114;-1.684;2023-09-18T02:34:30;6.68;;;5.97;;
52574;SDS011;38468;48.114;-1.684;2023-09-18T02:36:30;7.43;;;6.65;;
52574;SDS011;38468;48.114;-1.684;2023-09-18T02:38:31;8.32;;;7.53;;
52574;SDS011;38468;48.114;-1.684;2023-09-18T02:40:32;8.25;;;6.65;;
52574;SDS011;38468;48.114;-1.684;2023-09-18T02:42:33;8.70;;;7.60;;
52574;SDS011;38468;48.114;-1.684;2023-09-18T02:44:34;12.80;;;7.38;;
52574;SDS011;38468;48.114;-1.684;2023-09-18T02:46:36;14.82;;;8.55;;
52574;SDS011;38468;48.114;-1.684;2023-09-18T02:48:37;10.98;;;7.25;;
52574;SDS011;38468;48.114;-1.684;2023-09-18T02:50:38;8.45;;;6.93;;
52574;SDS011;38468;48.114;-1.684;2023-09-18T02:52:39;9.65;;;8.15;;
52574;SDS011;38468;48.114;-1.684;2023-09-18T02:54:39;12.88;;;8.68;;
52574;SDS011;38468;48.114;-1.684;2023-09-18T02:56:40;9.50;;;8.40;;
52574;SDS011;38468;48.114;-1.684;2023-09-18T02:58:40;8.43;;;7.63;;
52574;SDS011;38468;48.114;-1.684;2023-09-18T03:00:41;8.43;;;7.32;;
52574;SDS011;38468;48.114;-1.684;2023-09-18T03:02:45;7.15;;;6.45;;
52574;SDS011;38468;48.114;-1.684;2023-09-18T03:04:46;10.93;;;6.63;;
52574;SDS011;38468;48.114;-1.684;2023-09-18T03:06:47;7.95;;;7.03;;
52574;SDS011;38468;48.114;-1.684;2023-09-18T03:08:47;9.48;;;7.45;;
52574;SDS011;38468;48.114;-1.684;2023-09-18T03:10:48;8.07;;;7.25;;
52574;SDS011;38468;48.114;-1.684;2023-09-18T03:12:49;9.60;;;8.70;;
52574;SDS011;38468;48.114;-1.684;2023-09-18T03:14:50;10.48;;;7.88;;
52574;SDS011;38468;48.114;-1.684;2023-09-18T03:16:51;11.70;;;8.50;;
52574;SDS011;38468;48.114;-1.684;2023-09-18T03:18:51;10.40;;;7.70;;
52574;SDS011;38468;48.114;-1.684;2023-09-18T03:20:52;17.42;;;7.15;;
52574;SDS011;38468;48.114;-1.684;2023-09-18T03:22:53;9.18;;;7.45;;
52574;SDS011;38468;48.114;-1.684;2023-09-18T03:26:55;9.45;;;7.55;;
52574;SDS011;38468;48.114;-1.684;2023-09-18T03:28:56;10.98;;;8.93;;
52574;SDS011;38468;48.114;-1.684;2023-09-18T03:30:57;9.75;;;7.47;;
52574;SDS011;38468;48.114;-1.684;2023-09-18T03:32:58;7.95;;;7.05;;
52574;SDS011;38468;48.114;-1.684;2023-09-18T03:34:59;11.68;;;7.05;;
52574;SDS011;38468;48.114;-1.684;2023-09-18T03:36:59;13.27;;;8.35;;
52574;SDS011;38468;48.114;-1.684;2023-09-18T03:39:00;9.70;;;8.55;;
52574;SDS011;38468;48.114;-1.684;2023-09-18T03:41:01;7.82;;;7.03;;
52574;SDS011;38468;48.114;-1.684;2023-09-18T03:43:01;8.05;;;7.45;;
52574;SDS011;38468;48.114;-1.684;2023-09-18T03:45:02;6.85;;;6.15;;
52574;SDS011;38468;48.114;-1.684;2023-09-18T03:47:03;7.43;;;6.70;;
52574;SDS011;38468;48.114;-1.684;2023-09-18T03:49:04;8.25;;;6.45;;
52574;SDS011;38468;48.114;-1.684;2023-09-18T03:51:05;9.45;;;7.53;;
52574;SDS011;38468;48.114;-1.684;2023-09-18T03:53:08;8.40;;;7.50;;
52574;SDS011;38468;48.114;-1.684;2023-09-18T03:55:09;8.70;;;7.30;;
52574;SDS011;38468;48.114;-1.684;2023-09-18T03:57:10;10.77;;;8.20;;
52574;SDS011;38468;48.114;-1.684;2023-09-18T03:59:11;9.73;;;8.77;;
52574;SDS011;38468;48.114;-1.684;2023-09-18T04:01:12;10.15;;;7.85;;
52574;SDS011;38468;48.114;-1.684;2023-09-18T04:03:12;9.18;;;7.82;;
52574;SDS011;38468;48.114;-1.684;2023-09-18T04:05:13;7.82;;;7.10;;
52574;SDS011;38468;48.114;-1.684;2023-09-18T04:07:14;8.60;;;7.63;;
52574;SDS011;38468;48.114;-1.684;2023-09-18T04:09:16;11.07;;;7.45;;
52574;SDS011;38468;48.114;-1.684;2023-09-18T04:11:18;9.02;;;8.13;;
52574;SDS011;38468;48.114;-1.684;2023-09-18T04:13:25;10.45;;;7.90;;
52574;SDS011;38468;48.114;-1.684;2023-09-18T04:15:25;8.02;;;6.13;;
52574;SDS011;38468;48.114;-1.684;2023-09-18T04:17:27;8.00;;;7.28;;
52574;SDS011;38468;48.114;-1.684;2023-09-18T04:19:28;8.63;;;7.72;;
52574;SDS011;38468;48.114;-1.684;2023-09-18T04:21:29;10.18;;;6.68;;
52574;SDS011;38468;48.114;-1.684;2023-09-18T04:23:30;8.05;;;7.28;;
52574;SDS011;38468;48.114;-1.684;2023-09-18T04:25:30;8.00;;;7.18;;
52574;SDS011;38468;48.114;-1.684;2023-09-18T04:27:32;7.83;;;6.33;;
52574;SDS011;38468;48.114;-1.684;2023-09-18T04:29:32;15.02;;;7.95;;
52574;SDS011;38468;48.114;-1.684;2023-09-18T04:31:33;8.80;;;7.05;;
52574;SDS011;38468;48.114;-1.684;2023-09-18T04:33:33;7.07;;;6.40;;
52574;SDS011;38468;48.114;-1.684;2023-09-18T04:35:34;9.98;;;6.80;;
52574;SDS011;38468;48.114;-1.684;2023-09-18T04:37:35;7.47;;;6.50;;
52574;SDS011;38468;48.114;-1.684;2023-09-18T04:39:38;8.77;;;6.15;;
52574;SDS011;38468;48.114;-1.684;2023-09-18T04:41:39;6.80;;;5.95;;
52574;SDS011;38468;48.114;-1.684;2023-09-18T04:43:40;6.82;;;5.95;;
52574;SDS011;38468;48.114;-1.684;2023-09-18T04:45:43;6.22;;;5.63;;
52574;SDS011;38468;48.114;-1.684;2023-09-18T04:47:45;7.57;;;6.90;;
52574;SDS011;38468;48.114;-1.684;2023-09-18T04:49:45;6.47;;;5.88;;
52574;SDS011;38468;48.114;-1.684;2023-09-18T04:51:47;6.22;;;5.65;;
52574;SDS011;38468;48.114;-1.684;2023-09-18T04:53:48;6.68;;;6.03;;
52574;SDS011;38468;48.114;-1.684;2023-09-18T04:55:48;8.05;;;6.85;;
52574;SDS011;38468;48.114;-1.684;2023-09-18T04:57:50;10.57;;;6.07;;
52574;SDS011;38468;48.114;-1.684;2023-09-18T04:59:50;5.78;;;5.28;;
52574;SDS011;38468;48.114;-1.684;2023-09-18T05:01:51;9.23;;;5.70;;
52574;SDS011;38468;48.114;-1.684;2023-09-18T05:03:52;9.13;;;6.40;;
52574;SDS011;38468;48.114;-1.684;2023-09-18T05:05:52;7.55;;;5.53;;
52574;SDS011;38468;48.114;-1.684;2023-09-18T05:07:53;8.52;;;6.47;;
52574;SDS011;38468;48.114;-1.684;2023-09-18T05:09:53;8.05;;;7.25;;
52574;SDS011;38468;48.114;-1.684;2023-09-18T05:11:54;8.85;;;7.55;;
52574;SDS011;38468;48.114;-1.684;2023-09-18T05:13:55;8.23;;;7.53;;
52574;SDS011;38468;48.114;-1.684;2023-09-18T05:15:55;7.05;;;6.35;;
52574;SDS011;38468;48.114;-1.684;2023-09-18T05:17:56;11.00;;;6.05;;
52574;SDS011;38468;48.114;-1.684;2023-09-18T05:19:58;9.15;;;8.25;;
52574;SDS011;38468;48.114;-1.684;2023-09-18T05:21:59;9.02;;;7.10;;
52574;SDS011;38468;48.114;-1.684;2023-09-18T05:23:59;8.02;;;6.97;;
52574;SDS011;38468;48.114;-1.684;2023-09-18T05:26:00;6.50;;;5.78;;
52574;SDS011;38468;48.114;-1.684;2023-09-18T05:28:01;6.60;;;5.97;;
52574;SDS011;38468;48.114;-1.684;2023-09-18T05:30:01;7.40;;;6.45;;
52574;SDS011;38468;48.114;-1.684;2023-09-18T05:32:02;7.68;;;6.82;;
52574;SDS011;38468;48.114;-1.684;2023-09-18T05:34:03;8.13;;;6.93;;
52574;SDS011;38468;48.114;-1.684;2023-09-18T05:36:04;7.88;;;6.90;;
52574;SDS011;38468;48.114;-1.684;2023-09-18T05:38:05;8.77;;;7.97;;
52574;SDS011;38468;48.114;-1.684;2023-09-18T05:40:07;8.35;;;6.88;;
52574;SDS011;38468;48.114;-1.684;2023-09-18T05:42:11;9.10;;;7.50;;
52574;SDS011;38468;48.114;-1.684;2023-09-18T05:44:12;8.13;;;7.32;;
52574;SDS011;38468;48.114;-1.684;2023-09-18T05:46:13;10.02;;;7.38;;
52574;SDS011;38468;48.114;-1.684;2023-09-18T05:48:13;7.50;;;5.88;;
52574;SDS011;38468;48.114;-1.684;2023-09-18T05:50:14;7.38;;;6.68;;
52574;SDS011;38468;48.114;-1.684;2023-09-18T05:52:16;7.57;;;6.85;;
52574;SDS011;38468;48.114;-1.684;2023-09-18T05:54:17;8.07;;;6.60;;
52574;SDS011;38468;48.114;-1.684;2023-09-18T05:56:17;7.88;;;6.75;;
52574;SDS011;38468;48.114;-1.684;2023-09-18T05:58:18;8.57;;;7.65;;
52574;SDS011;38468;48.114;-1.684;2023-09-18T06:00:22;10.93;;;7.75;;
52574;SDS011;38468;48.114;-1.684;2023-09-18T06:02:23;9.48;;;8.50;;
52574;SDS011;38468;48.114;-1.684;2023-09-18T06:04:27;10.38;;;6.78;;
52574;SDS011;38468;48.114;-1.684;2023-09-18T06:06:28;8.80;;;7.65;;
52574;SDS011;38468;48.114;-1.684;2023-09-18T06:08:29;9.15;;;8.25;;
52574;SDS011;38468;48.114;-1.684;2023-09-18T06:10:30;12.15;;;7.85;;
52574;SDS011;38468;48.114;-1.684;2023-09-18T06:12:31;10.38;;;8.15;;
52574;SDS011;38468;48.114;-1.684;2023-09-18T06:14:31;10.05;;;9.00;;
52574;SDS011;38468;48.114;-1.684;2023-09-18T06:16:34;9.18;;;7.38;;
52574;SDS011;38468;48.114;-1.684;2023-09-18T06:18:35;11.88;;;6.50;;
52574;SDS011;38468;48.114;-1.684;2023-09-18T06:20:38;10.77;;;7.05;;
52574;SDS011;38468;48.114;-1.684;2023-09-18T06:22:40;11.00;;;7.55;;
52574;SDS011;38468;48.114;-1.684;2023-09-18T06:24:41;13.17;;;8.10;;
52574;SDS011;38468;48.114;-1.684;2023-09-18T06:26:42;12.23;;;8.37;;
52574;SDS011;38468;48.114;-1.684;2023-09-18T06:28:42;8.65;;;6.90;;
52574;SDS011;38468;48.114;-1.684;2023-09-18T06:30:43;7.05;;;6.35;;
52574;SDS011;38468;48.114;-1.684;2023-09-18T06:32:44;14.15;;;6.65;;
52574;SDS011;38468;48.114;-1.684;2023-09-18T06:34:44;9.30;;;6.80;;
52574;SDS011;38468;48.114;-1.684;2023-09-18T06:36:47;7.65;;;6.75;;
52574;SDS011;38468;48.114;-1.684;2023-09-18T06:38:48;11.27;;;5.85;;
52574;SDS011;38468;48.114;-1.684;2023-09-18T06:40:48;9.65;;;5.93;;
52574;SDS011;38468;48.114;-1.684;2023-09-18T06:42:50;8.32;;;5.72;;
52574;SDS011;38468;48.114;-1.684;2023-09-18T06:46:53;8.38;;;6.07;;
52574;SDS011;38468;48.114;-1.684;2023-09-18T06:48:54;17.70;;;13.93;;
52574;SDS011;38468;48.114;-1.684;2023-09-18T06:50:56;8.93;;;5.75;;
52574;SDS011;38468;48.114;-1.684;2023-09-18T06:52:56;9.55;;;5.63;;
52574;SDS011;38468;48.114;-1.684;2023-09-18T06:54:57;5.93;;;5.10;;
52574;SDS011;38468;48.114;-1.684;2023-09-18T06:56:58;5.45;;;4.93;;
52574;SDS011;38468;48.114;-1.684;2023-09-18T06:58:58;5.88;;;5.28;;
52574;SDS011;38468;48.114;-1.684;2023-09-18T07:00:59;11.10;;;5.95;;
52574;SDS011;38468;48.114;-1.684;2023-09-18T07:02:59;7.65;;;5.53;;
52574;SDS011;38468;48.114;-1.684;2023-09-18T07:05:00;8.90;;;5.68;;
52574;SDS011;38468;48.114;-1.684;2023-09-18T07:07:01;7.32;;;5.55;;
52574;SDS011;38468;48.114;-1.684;2023-09-18T07:09:01;8.35;;;4.68;;
52574;SDS011;38468;48.114;-1.684;2023-09-18T07:11:04;5.50;;;5.00;;
52574;SDS011;38468;48.114;-1.684;2023-09-18T07:13:05;8.55;;;4.85;;
52574;SDS011;38468;48.114;-1.684;2023-09-18T07:15:06;8.20;;;5.20;;
52574;SDS011;38468;48.114;-1.684;2023-09-18T07:17:07;6.85;;;4.80;;
52574;SDS011;38468;48.114;-1.684;2023-09-18T07:19:07;7.85;;;4.22;;
52574;SDS011;38468;48.114;-1.684;2023-09-18T07:21:11;5.28;;;4.38;;
52574;SDS011;38468;48.114;-1.684;2023-09-18T07:23:12;8.15;;;5.20;;
52574;SDS011;38468;48.114;-1.684;2023-09-18T07:25:13;6.35;;;4.53;;
52574;SDS011;38468;48.114;-1.684;2023-09-18T07:27:14;6.35;;;4.60;;
52574;SDS011;38468;48.114;-1.684;2023-09-18T07:29:15;7.60;;;3.63;;
52574;SDS011;38468;48.114;-1.684;2023-09-18T07:31:16;4.25;;;3.80;;
52574;SDS011;38468;48.114;-1.684;2023-09-18T07:33:16;8.23;;;4.32;;
52574;SDS011;38468;48.114;-1.684;2023-09-18T07:35:19;4.93;;;3.60;;
52574;SDS011;38468;48.114;-1.684;2023-09-18T07:37:20;7.13;;;4.07;;
52574;SDS011;38468;48.114;-1.684;2023-09-18T07:39:22;7.70;;;3.80;;
52574;SDS011;38468;48.114;-1.684;2023-09-18T07:41:22;8.93;;;3.85;;
52574;SDS011;38468;48.114;-1.684;2023-09-18T07:43:26;30.05;;;26.85;;
52574;SDS011;38468;48.114;-1.684;2023-09-18T07:45:27;9.82;;;5.45;;
52574;SDS011;38468;48.114;-1.684;2023-09-18T07:47:27;7.30;;;3.70;;
52574;SDS011;38468;48.114;-1.684;2023-09-18T07:49:28;6.13;;;3.58;;
52574;SDS011;38468;48.114;-1.684;2023-09-18T07:51:29;6.72;;;3.80;;
52574;SDS011;38468;48.114;-1.684;2023-09-18T07:53:30;4.50;;;3.28;;
52574;SDS011;38468;48.114;-1.684;2023-09-18T07:55:32;11.90;;;3.75;;
52574;SDS011;38468;48.114;-1.684;2023-09-18T07:57:32;6.10;;;3.03;;
52574;SDS011;38468;48.114;-1.684;2023-09-18T07:59:35;4.70;;;3.25;;
52574;SDS011;38468;48.114;-1.684;2023-09-18T08:01:36;5.10;;;2.92;;
52574;SDS011;38468;48.114;-1.684;2023-09-18T08:03:37;4.07;;;3.22;;
52574;SDS011;38468;48.114;-1.684;2023-09-18T08:05:38;8.27;;;3.55;;
52574;SDS011;38468;48.114;-1.684;2023-09-18T08:07:40;6.28;;;3.13;;
52574;SDS011;38468;48.114;-1.684;2023-09-18T08:09:41;5.95;;;3.55;;
52574;SDS011;38468;48.114;-1.684;2023-09-18T08:11:42;4.72;;;3.15;;
52574;SDS011;38468;48.114;-1.684;2023-09-18T08:13:43;6.00;;;2.40;;
52574;SDS011;38468;48.114;-1.684;2023-09-18T08:15:43;8.88;;;2.65;;
52574;SDS011;38468;48.114;-1.684;2023-09-18T08:17:44;4.90;;;3.30;;
52574;SDS011;38468;48.114;-1.684;2023-09-18T08:19:46;6.07;;;2.55;;
52574;SDS011;38468;48.114;-1.684;2023-09-18T08:21:55;5.57;;;2.90;;
52574;SDS011;38468;48.114;-1.684;2023-09-18T08:24:03;3.17;;;2.80;;
52574;SDS011;38468;48.114;-1.684;2023-09-18T08:26:04;4.25;;;3.00;;
52574;SDS011;38468;48.114;-1.684;2023-09-18T08:28:05;6.70;;;3.20;;
52574;SDS011;38468;48.114;-1.684;2023-09-18T08:30:06;4.18;;;2.17;;
52574;SDS011;38468;48.114;-1.684;2023-09-18T08:32:09;10.20;;;2.55;;
52574;SDS011;38468;48.114;-1.684;2023-09-18T08:34:10;8.73;;;2.75;;
52574;SDS011;38468;48.114;-1.684;2023-09-18T08:36:11;3.47;;;2.28;;
52574;SDS011;38468;48.114;-1.684;2023-09-18T08:38:14;3.63;;;2.20;;
52574;SDS011;38468;48.114;-1.684;2023-09-18T08:40:14;5.20;;;2.25;;
52574;SDS011;38468;48.114;-1.684;2023-09-18T08:42:16;3.00;;;2.10;;
52574;SDS011;38468;48.114;-1.684;2023-09-18T08:44:20;2.55;;;1.80;;
52574;SDS011;38468;48.114;-1.684;2023-09-18T08:46:25;3.00;;;2.20;;
52574;SDS011;38468;48.114;-1.684;2023-09-18T08:48:25;2.95;;;1.90;;
52574;SDS011;38468;48.114;-1.684;2023-09-18T08:50:29;5.25;;;2.45;;
52574;SDS011;38468;48.114;-1.684;2023-09-18T08:52:30;5.40;;;2.03;;
52574;SDS011;38468;48.114;-1.684;2023-09-18T08:54:30;3.28;;;1.70;;
52574;SDS011;38468;48.114;-1.684;2023-09-18T08:56:33;5.03;;;2.10;;
52574;SDS011;38468;48.114;-1.684;2023-09-18T08:58:36;7.57;;;2.17;;
52574;SDS011;38468;48.114;-1.684;2023-09-18T09:00:39;5.60;;;1.98;;
52574;SDS011;38468;48.114;-1.684;2023-09-18T09:02:41;2.28;;;2.05;;
52574;SDS011;38468;48.114;-1.684;2023-09-18T09:04:41;3.08;;;1.80;;
52574;SDS011;38468;48.114;-1.684;2023-09-18T09:06:42;3.65;;;2.15;;
52574;SDS011;38468;48.114;-1.684;2023-09-18T09:08:43;7.18;;;1.88;;
52574;SDS011;38468;48.114;-1.684;2023-09-18T09:10:44;4.93;;;1.55;;
52574;SDS011;38468;48.114;-1.684;2023-09-18T09:12:52;3.13;;;2.20;;
52574;SDS011;38468;48.114;-1.684;2023-09-18T09:15:02;2.25;;;1.90;;
52574;SDS011;38468;48.114;-1.684;2023-09-18T09:17:03;4.32;;;2.22;;
52574;SDS011;38468;48.114;-1.684;2023-09-18T09:19:05;6.53;;;1.90;;
52574;SDS011;38468;48.114;-1.684;2023-09-18T09:21:05;5.40;;;1.88;;
52574;SDS011;38468;48.114;-1.684;2023-09-18T09:23:08;5.05;;;2.10;;
52574;SDS011;38468;48.114;-1.684;2023-09-18T09:25:22;3.28;;;1.80;;
52574;SDS011;38468;48.114;-1.684;2023-09-18T09:27:25;4.13;;;2.10;;
52574;SDS011;38468;48.114;-1.684;2023-09-18T09:29:26;3.67;;;1.67;;
52574;SDS011;38468;48.114;-1.684;2023-09-18T09:31:27;6.20;;;2.00;;
52574;SDS011;38468;48.114;-1.684;2023-09-18T09:33:29;5.85;;;2.10;;
52574;SDS011;38468;48.114;-1.684;2023-09-18T09:35:31;3.28;;;2.00;;
52574;SDS011;38468;48.114;-1.684;2023-09-18T09:37:33;2.88;;;1.42;;
52574;SDS011;38468;48.114;-1.684;2023-09-18T09:39:34;16.10;;;14.30;;
52574;SDS011;38468;48.114;-1.684;2023-09-18T09:41:45;9.82;;;4.20;;
52574;SDS011;38468;48.114;-1.684;2023-09-18T09:43:47;4.80;;;2.03;;
52574;SDS011;38468;48.114;-1.684;2023-09-18T09:45:48;7.75;;;2.33;;
52574;SDS011;38468;48.114;-1.684;2023-09-18T09:47:48;3.80;;;1.48;;
52574;SDS011;38468;48.114;-1.684;2023-09-18T09:49:54;4.60;;;2.13;;
52574;SDS011;38468;48.114;-1.684;2023-09-18T09:51:55;3.80;;;1.88;;
52574;SDS011;38468;48.114;-1.684;2023-09-18T09:53:59;7.80;;;2.17;;
52574;SDS011;38468;48.114;-1.684;2023-09-18T09:56:00;5.83;;;2.73;;
52574;SDS011;38468;48.114;-1.684;2023-09-18T09:58:01;3.55;;;2.13;;
52574;SDS011;38468;48.114;-1.684;2023-09-18T10:00:06;5.20;;;1.80;;
52574;SDS011;38468;48.114;-1.684;2023-09-18T10:02:26;4.72;;;2.53;;
52574;SDS011;38468;48.114;-1.684;2023-09-18T10:04:27;4.00;;;1.65;;
52574;SDS011;38468;48.114;-1.684;2023-09-18T10:06:30;2.85;;;2.08;;
52574;SDS011;38468;48.114;-1.684;2023-09-18T10:08:34;4.13;;;1.50;;
52574;SDS011;38468;48.114;-1.684;2023-09-18T10:10:37;4.20;;;2.40;;
52574;SDS011;38468;48.114;-1.684;2023-09-18T10:12:40;3.90;;;2.00;;
52574;SDS011;38468;48.114;-1.684;2023-09-18T10:14:42;5.38;;;2.33;;
52574;SDS011;38468;48.114;-1.684;2023-09-18T10:16:49;4.25;;;2.20;;
52574;SDS011;38468;48.114;-1.684;2023-09-18T10:21:18;6.03;;;2.22;;
52574;SDS011;38468;48.114;-1.684;2023-09-18T10:25:46;3.63;;;2.13;;
52574;SDS011;38468;48.114;-1.684;2023-09-18T10:27:49;4.50;;;1.85;;
52574;SDS011;38468;48.114;-1.684;2023-09-18T10:29:53;3.63;;;2.28;;
52574;SDS011;38468;48.114;-1.684;2023-09-18T10:31:55;2.92;;;2.13;;
52574;SDS011;38468;48.114;-1.684;2023-09-18T10:33:56;8.20;;;2.08;;
52574;SDS011;38468;48.114;-1.684;2023-09-18T10:35:59;4.93;;;1.65;;
52574;SDS011;38468;48.114;-1.684;2023-09-18T10:40:03;1.60;;;1.50;;
52574;SDS011;38468;48.114;-1.684;2023-09-18T10:42:08;2.97;;;2.13;;
52574;SDS011;38468;48.114;-1.684;2023-09-18T10:44:09;2.65;;;1.30;;
52574;SDS011;38468;48.114;-1.684;2023-09-18T10:46:11;2.85;;;1.67;;
52574;SDS011;38468;48.114;-1.684;2023-09-18T10:48:13;3.70;;;2.00;;
52574;SDS011;38468;48.114;-1.684;2023-09-18T10:50:25;5.05;;;1.85;;
52574;SDS011;38468;48.114;-1.684;2023-09-18T10:52:26;2.05;;;1.65;;
52574;SDS011;38468;48.114;-1.684;2023-09-18T10:54:28;3.97;;;1.77;;
52574;SDS011;38468;48.114;-1.684;2023-09-18T10:56:30;3.85;;;1.50;;
52574;SDS011;38468;48.114;-1.684;2023-09-18T10:58:32;5.22;;;1.60;;
52574;SDS011;38468;48.114;-1.684;2023-09-18T11:00:35;4.97;;;2.10;;
52574;SDS011;38468;48.114;-1.684;2023-09-18T11:02:36;3.58;;;1.70;;
52574;SDS011;38468;48.114;-1.684;2023-09-18T11:04:37;4.60;;;1.15;;
52574;SDS011;38468;48.114;-1.684;2023-09-18T11:09:00;3.10;;;1.40;;
52574;SDS011;38468;48.114;-1.684;2023-09-18T11:11:07;2.00;;;1.80;;
52574;SDS011;38468;48.114;-1.684;2023-09-18T11:13:13;16.08;;;11.20;;
52574;SDS011;38468;48.114;-1.684;2023-09-18T11:15:31;4.63;;;2.17;;
52574;SDS011;38468;48.114;-1.684;2023-09-18T11:19:34;4.22;;;1.30;;
52574;SDS011;38468;48.114;-1.684;2023-09-18T11:21:42;3.55;;;1.55;;
52574;SDS011;38468;48.114;-1.684;2023-09-18T11:23:43;7.22;;;1.52;;
52574;SDS011;38468;48.114;-1.684;2023-09-18T11:25:44;2.10;;;1.50;;
52574;SDS011;38468;48.114;-1.684;2023-09-18T11:27:52;1.73;;;1.27;;
52574;SDS011;38468;48.114;-1.684;2023-09-18T11:29:58;1.95;;;1.70;;
52574;SDS011;38468;48.114;-1.684;2023-09-18T11:32:01;1.58;;;1.08;;
52574;SDS011;38468;48.114;-1.684;2023-09-18T11:36:15;3.28;;;1.48;;
52574;SDS011;38468;48.114;-1.684;2023-09-18T11:38:35;3.08;;;1.42;;
52574;SDS011;38468;48.114;-1.684;2023-09-18T11:40:51;2.00;;;1.10;;
52574;SDS011;38468;48.114;-1.684;2023-09-18T11:45:22;3.75;;;1.33;;
52574;SDS011;38468;48.114;-1.684;2023-09-18T11:47:25;1.60;;;1.10;;
52574;SDS011;38468;48.114;-1.684;2023-09-18T11:49:27;2.50;;;1.15;;
52574;SDS011;38468;48.114;-1.684;2023-09-18T11:51:30;1.20;;;1.15;;
52574;SDS011;38468;48.114;-1.684;2023-09-18T11:53:33;1.20;;;1.10;;
52574;SDS011;38468;48.114;-1.684;2023-09-18T11:55:37;3.50;;;1.30;;
52574;SDS011;38468;48.114;-1.684;2023-09-18T11:57:38;1.92;;;1.45;;
52574;SDS011;38468;48.114;-1.684;2023-09-18T11:59:42;1.10;;;1.00;;
52574;SDS011;38468;48.114;-1.684;2023-09-18T12:01:44;2.00;;;1.17;;
52574;SDS011;38468;48.114;-1.684;2023-09-18T12:04:01;2.90;;;1.08;;
52574;SDS011;38468;48.114;-1.684;2023-09-18T12:06:09;4.53;;;1.58;;
52574;SDS011;38468;48.114;-1.684;2023-09-18T12:08:13;3.30;;;1.52;;
52574;SDS011;38468;48.114;-1.684;2023-09-18T12:10:17;1.90;;;1.15;;
52574;SDS011;38468;48.114;-1.684;2023-09-18T12:12:20;4.05;;;1.75;;
52574;SDS011;38468;48.114;-1.684;2023-09-18T12:14:21;1.90;;;1.10;;
52574;SDS011;38468;48.114;-1.684;2023-09-18T12:16:22;1.53;;;1.17;;
52574;SDS011;38468;48.114;-1.684;2023-09-18T12:18:23;1.65;;;1.10;;
52574;SDS011;38468;48.114;-1.684;2023-09-18T12:20:25;5.68;;;1.55;;
52574;SDS011;38468;48.114;-1.684;2023-09-18T12:22:26;1.33;;;1.20;;
52574;SDS011;38468;48.114;-1.684;2023-09-18T12:24:27;3.85;;;1.48;;